sensor_id;sensor_type;location;lat;lon;timestamp;temperature;humidity
21895;DHT22;11112;51.270;7.224;2022-09-03T00:00:22;19.90;56.80
21895;DHT22;11112;51.270;7.224;2022-09-03T00:02:58;19.80;56.90
21895;DHT22;11112;51.270;7.224;2022-09-03T00:05:34;19.80;56.50
21895;DHT22;11112;51.270;7.224;2022-09-03T00:08:09;19.90;56.40
21895;DHT22;11112;51.270;7.224;2022-09-03T00:10:44;19.90;56.80
21895;DHT22;11112;51.270;7.224;2022-09-03T00:13:15;19.90;56.90
21895;DHT22;11112;51.270;7.224;2022-09-03T00:15:44;19.90;56.20
21895;DHT22;11112;51.270;7.224;2022-09-03T00:18:16;19.90;55.90
21895;DHT22;11112;51.270;7.224;2022-09-03T00:20:50;19.90;55.80
21895;DHT22;11112;51.270;7.224;2022-09-03T00:23:21;19.90;55.70
21895;DHT22;11112;51.270;7.224;2022-09-03T00:25:52;19.90;55.90
21895;DHT22;11112;51.270;7.224;2022-09-03T00:28:25;19.90;55.80
21895;DHT22;11112;51.270;7.224;2022-09-03T00:31:09;19.90;55.60
21895;DHT22;11112;51.270;7.224;2022-09-03T00:33:41;20.00;55.50
21895;DHT22;11112;51.270;7.224;2022-09-03T00:36:14;20.00;55.50
21895;DHT22;11112;51.270;7.224;2022-09-03T00:38:43;19.90;55.70
21895;DHT22;11112;51.270;7.224;2022-09-03T00:41:19;20.00;56.00
21895;DHT22;11112;51.270;7.224;2022-09-03T00:44:19;20.00;55.70
21895;DHT22;11112;51.270;7.224;2022-09-03T00:47:01;19.90;55.70
21895;DHT22;11112;51.270;7.224;2022-09-03T00:49:43;20.00;55.60
21895;DHT22;11112;51.270;7.224;2022-09-03T00:52:22;20.00;55.70
21895;DHT22;11112;51.270;7.224;2022-09-03T00:55:04;20.00;55.60
21895;DHT22;11112;51.270;7.224;2022-09-03T00:57:46;19.90;55.60
21895;DHT22;11112;51.270;7.224;2022-09-03T01:00:21;19.90;55.70
21895;DHT22;11112;51.270;7.224;2022-09-03T01:02:57;19.90;55.70
21895;DHT22;11112;51.270;7.224;2022-09-03T01:09:05;19.90;55.50
21895;DHT22;11112;51.270;7.224;2022-09-03T01:11:45;19.90;55.60
21895;DHT22;11112;51.270;7.224;2022-09-03T01:14:32;19.90;55.70
21895;DHT22;11112;51.270;7.224;2022-09-03T01:17:13;19.90;55.70
21895;DHT22;11112;51.270;7.224;2022-09-03T01:20:02;19.90;55.70
21895;DHT22;11112;51.270;7.224;2022-09-03T01:26:02;19.90;55.60
21895;DHT22;11112;51.270;7.224;2022-09-03T01:28:51;19.90;55.70
21895;DHT22;11112;51.270;7.224;2022-09-03T01:31:30;19.90;55.80
21895;DHT22;11112;51.270;7.224;2022-09-03T01:34:10;19.90;55.80
21895;DHT22;11112;51.270;7.224;2022-09-03T01:36:47;19.80;55.70
21895;DHT22;11112;51.270;7.224;2022-09-03T01:39:24;19.80;55.70
21895;DHT22;11112;51.270;7.224;2022-09-03T01:42:00;19.80;55.60
21895;DHT22;11112;51.270;7.224;2022-09-03T01:45:02;19.90;55.70
21895;DHT22;11112;51.270;7.224;2022-09-03T01:47:55;19.90;55.80
21895;DHT22;11112;51.270;7.224;2022-09-03T01:50:37;19.90;55.60
21895;DHT22;11112;51.270;7.224;2022-09-03T01:53:16;19.90;55.80
21895;DHT22;11112;51.270;7.224;2022-09-03T01:56:02;19.80;55.80
21895;DHT22;11112;51.270;7.224;2022-09-03T01:58:44;19.80;55.80
21895;DHT22;11112;51.270;7.224;2022-09-03T02:01:23;19.80;55.70
21895;DHT22;11112;51.270;7.224;2022-09-03T02:03:55;19.80;55.80
21895;DHT22;11112;51.270;7.224;2022-09-03T02:06:24;19.80;55.70
21895;DHT22;11112;51.270;7.224;2022-09-03T02:08:51;19.80;55.80
21895;DHT22;11112;51.270;7.224;2022-09-03T02:11:22;19.80;55.90
21895;DHT22;11112;51.270;7.224;2022-09-03T02:13:52;19.80;56.00
21895;DHT22;11112;51.270;7.224;2022-09-03T02:16:25;19.80;55.90
21895;DHT22;11112;51.270;7.224;2022-09-03T02:18:56;19.80;55.90
21895;DHT22;11112;51.270;7.224;2022-09-03T02:21:28;19.80;56.00
21895;DHT22;11112;51.270;7.224;2022-09-03T02:23:59;19.70;55.90
21895;DHT22;11112;51.270;7.224;2022-09-03T02:26:27;19.70;55.90
21895;DHT22;11112;51.270;7.224;2022-09-03T02:28:55;19.70;56.10
21895;DHT22;11112;51.270;7.224;2022-09-03T02:31:25;19.70;56.10
21895;DHT22;11112;51.270;7.224;2022-09-03T02:33:53;19.70;56.10
21895;DHT22;11112;51.270;7.224;2022-09-03T02:36:26;19.70;56.10
21895;DHT22;11112;51.270;7.224;2022-09-03T02:38:55;19.70;56.20
21895;DHT22;11112;51.270;7.224;2022-09-03T02:41:22;19.70;56.20
21895;DHT22;11112;51.270;7.224;2022-09-03T02:43:55;19.70;56.20
21895;DHT22;11112;51.270;7.224;2022-09-03T02:46:32;19.70;56.30
21895;DHT22;11112;51.270;7.224;2022-09-03T02:49:02;19.70;56.30
21895;DHT22;11112;51.270;7.224;2022-09-03T02:51:32;19.70;56.30
21895;DHT22;11112;51.270;7.224;2022-09-03T02:54:00;19.70;56.30
21895;DHT22;11112;51.270;7.224;2022-09-03T02:56:28;19.70;56.50
21895;DHT22;11112;51.270;7.224;2022-09-03T02:58:55;19.70;56.50
21895;DHT22;11112;51.270;7.224;2022-09-03T03:01:22;19.70;56.60
21895;DHT22;11112;51.270;7.224;2022-09-03T03:03:52;19.70;56.50
21895;DHT22;11112;51.270;7.224;2022-09-03T03:06:19;19.70;56.70
21895;DHT22;11112;51.270;7.224;2022-09-03T03:08:47;19.70;56.80
21895;DHT22;11112;51.270;7.224;2022-09-03T03:11:15;19.70;56.80
21895;DHT22;11112;51.270;7.224;2022-09-03T03:13:44;19.70;56.80
21895;DHT22;11112;51.270;7.224;2022-09-03T03:16:13;19.70;56.90
21895;DHT22;11112;51.270;7.224;2022-09-03T03:18:41;19.70;56.90
21895;DHT22;11112;51.270;7.224;2022-09-03T03:21:14;19.70;56.90
21895;DHT22;11112;51.270;7.224;2022-09-03T03:23:42;19.70;56.70
21895;DHT22;11112;51.270;7.224;2022-09-03T03:26:11;19.70;56.90
21895;DHT22;11112;51.270;7.224;2022-09-03T03:28:40;19.70;56.90
21895;DHT22;11112;51.270;7.224;2022-09-03T03:31:08;19.70;56.90
21895;DHT22;11112;51.270;7.224;2022-09-03T03:33:37;19.70;56.90
21895;DHT22;11112;51.270;7.224;2022-09-03T03:36:05;19.70;57.00
21895;DHT22;11112;51.270;7.224;2022-09-03T03:38:35;19.70;56.90
21895;DHT22;11112;51.270;7.224;2022-09-03T03:41:06;19.70;57.20
21895;DHT22;11112;51.270;7.224;2022-09-03T03:43:34;19.70;57.20
21895;DHT22;11112;51.270;7.224;2022-09-03T03:46:01;19.70;57.10
21895;DHT22;11112;51.270;7.224;2022-09-03T03:48:29;19.70;57.10
21895;DHT22;11112;51.270;7.224;2022-09-03T03:51:00;19.60;57.30
21895;DHT22;11112;51.270;7.224;2022-09-03T03:53:28;19.70;57.30
21895;DHT22;11112;51.270;7.224;2022-09-03T03:55:58;19.60;58.40
21895;DHT22;11112;51.270;7.224;2022-09-03T03:58:27;19.60;57.90
21895;DHT22;11112;51.270;7.224;2022-09-03T04:00:54;19.60;57.80
21895;DHT22;11112;51.270;7.224;2022-09-03T04:03:21;19.60;57.90
21895;DHT22;11112;51.270;7.224;2022-09-03T04:05:58;19.60;58.20
21895;DHT22;11112;51.270;7.224;2022-09-03T04:08:25;19.60;58.40
21895;DHT22;11112;51.270;7.224;2022-09-03T04:10:53;19.60;58.50
21895;DHT22;11112;51.270;7.224;2022-09-03T04:13:21;19.60;58.70
21895;DHT22;11112;51.270;7.224;2022-09-03T04:15:48;19.50;58.50
21895;DHT22;11112;51.270;7.224;2022-09-03T04:18:16;19.60;58.50
21895;DHT22;11112;51.270;7.224;2022-09-03T04:20:43;19.50;58.60
21895;DHT22;11112;51.270;7.224;2022-09-03T04:23:10;19.50;58.70
21895;DHT22;11112;51.270;7.224;2022-09-03T04:25:37;19.50;58.90
21895;DHT22;11112;51.270;7.224;2022-09-03T04:28:06;19.50;59.10
21895;DHT22;11112;51.270;7.224;2022-09-03T04:30:36;19.50;59.30
21895;DHT22;11112;51.270;7.224;2022-09-03T04:33:03;19.50;59.20
21895;DHT22;11112;51.270;7.224;2022-09-03T04:35:30;19.50;59.30
21895;DHT22;11112;51.270;7.224;2022-09-03T04:37:58;19.50;59.40
21895;DHT22;11112;51.270;7.224;2022-09-03T04:40:26;19.50;59.50
21895;DHT22;11112;51.270;7.224;2022-09-03T04:42:56;19.50;59.40
21895;DHT22;11112;51.270;7.224;2022-09-03T04:45:25;19.50;59.60
21895;DHT22;11112;51.270;7.224;2022-09-03T04:47:59;19.50;59.70
21895;DHT22;11112;51.270;7.224;2022-09-03T04:50:27;19.50;59.60
21895;DHT22;11112;51.270;7.224;2022-09-03T04:52:55;19.40;59.70
21895;DHT22;11112;51.270;7.224;2022-09-03T04:55:25;19.40;59.80
21895;DHT22;11112;51.270;7.224;2022-09-03T04:57:53;19.40;59.80
21895;DHT22;11112;51.270;7.224;2022-09-03T05:00:20;19.40;59.90
21895;DHT22;11112;51.270;7.224;2022-09-03T05:02:47;19.40;59.80
21895;DHT22;11112;51.270;7.224;2022-09-03T05:05:18;19.40;59.80
21895;DHT22;11112;51.270;7.224;2022-09-03T05:07:45;19.40;60.00
21895;DHT22;11112;51.270;7.224;2022-09-03T05:10:13;19.40;60.30
21895;DHT22;11112;51.270;7.224;2022-09-03T05:12:45;19.30;60.30
21895;DHT22;11112;51.270;7.224;2022-09-03T05:15:14;19.30;60.30
21895;DHT22;11112;51.270;7.224;2022-09-03T05:17:42;19.30;60.40
21895;DHT22;11112;51.270;7.224;2022-09-03T05:20:10;19.30;60.50
21895;DHT22;11112;51.270;7.224;2022-09-03T05:22:38;19.20;60.80
21895;DHT22;11112;51.270;7.224;2022-09-03T05:25:06;19.30;61.00
21895;DHT22;11112;51.270;7.224;2022-09-03T05:27:33;19.20;61.10
21895;DHT22;11112;51.270;7.224;2022-09-03T05:30:01;19.20;61.20
21895;DHT22;11112;51.270;7.224;2022-09-03T05:32:29;19.20;61.00
21895;DHT22;11112;51.270;7.224;2022-09-03T05:34:57;19.30;61.10
21895;DHT22;11112;51.270;7.224;2022-09-03T05:37:24;19.30;61.30
21895;DHT22;11112;51.270;7.224;2022-09-03T05:39:53;19.30;61.30
21895;DHT22;11112;51.270;7.224;2022-09-03T05:42:21;19.30;60.70
21895;DHT22;11112;51.270;7.224;2022-09-03T05:44:48;19.30;60.50
21895;DHT22;11112;51.270;7.224;2022-09-03T05:47:15;19.30;60.50
21895;DHT22;11112;51.270;7.224;2022-09-03T05:49:43;19.30;60.70
21895;DHT22;11112;51.270;7.224;2022-09-03T05:52:10;19.30;61.00
21895;DHT22;11112;51.270;7.224;2022-09-03T05:54:37;19.30;61.00
21895;DHT22;11112;51.270;7.224;2022-09-03T05:57:05;19.30;61.10
21895;DHT22;11112;51.270;7.224;2022-09-03T05:59:33;19.30;61.40
21895;DHT22;11112;51.270;7.224;2022-09-03T06:02:00;19.30;61.20
21895;DHT22;11112;51.270;7.224;2022-09-03T06:04:27;19.40;61.00
21895;DHT22;11112;51.270;7.224;2022-09-03T06:06:55;19.40;60.90
21895;DHT22;11112;51.270;7.224;2022-09-03T06:09:22;19.40;60.90
21895;DHT22;11112;51.270;7.224;2022-09-03T06:11:49;19.50;61.00
21895;DHT22;11112;51.270;7.224;2022-09-03T06:14:18;19.50;60.70
21895;DHT22;11112;51.270;7.224;2022-09-03T06:16:47;19.50;60.50
21895;DHT22;11112;51.270;7.224;2022-09-03T06:19:14;19.50;60.50
21895;DHT22;11112;51.270;7.224;2022-09-03T06:21:43;19.50;60.00
21895;DHT22;11112;51.270;7.224;2022-09-03T06:24:12;19.50;60.40
21895;DHT22;11112;51.270;7.224;2022-09-03T06:26:40;19.50;60.00
21895;DHT22;11112;51.270;7.224;2022-09-03T06:29:08;19.50;60.10
21895;DHT22;11112;51.270;7.224;2022-09-03T06:31:37;19.50;60.10
21895;DHT22;11112;51.270;7.224;2022-09-03T06:34:04;19.50;60.30
21895;DHT22;11112;51.270;7.224;2022-09-03T06:36:31;19.50;60.20
21895;DHT22;11112;51.270;7.224;2022-09-03T06:38:59;19.50;60.10
21895;DHT22;11112;51.270;7.224;2022-09-03T06:41:28;19.50;60.30
21895;DHT22;11112;51.270;7.224;2022-09-03T06:43:58;19.60;61.30
21895;DHT22;11112;51.270;7.224;2022-09-03T06:46:26;19.60;60.50
21895;DHT22;11112;51.270;7.224;2022-09-03T06:48:56;19.70;60.50
21895;DHT22;11112;51.270;7.224;2022-09-03T06:51:25;19.70;60.50
21895;DHT22;11112;51.270;7.224;2022-09-03T06:53:59;19.70;60.40
21895;DHT22;11112;51.270;7.224;2022-09-03T06:56:26;19.70;60.40
21895;DHT22;11112;51.270;7.224;2022-09-03T06:58:55;19.70;60.50
21895;DHT22;11112;51.270;7.224;2022-09-03T07:01:24;19.70;60.40
21895;DHT22;11112;51.270;7.224;2022-09-03T07:03:54;19.70;60.50
21895;DHT22;11112;51.270;7.224;2022-09-03T07:06:24;19.70;60.50
21895;DHT22;11112;51.270;7.224;2022-09-03T07:08:53;19.80;60.60
21895;DHT22;11112;51.270;7.224;2022-09-03T07:11:25;19.70;60.20
21895;DHT22;11112;51.270;7.224;2022-09-03T07:13:53;19.70;60.00
21895;DHT22;11112;51.270;7.224;2022-09-03T07:16:22;19.70;60.10
21895;DHT22;11112;51.270;7.224;2022-09-03T07:18:51;19.80;60.30
21895;DHT22;11112;51.270;7.224;2022-09-03T07:21:20;19.80;60.40
21895;DHT22;11112;51.270;7.224;2022-09-03T07:23:49;19.80;60.00
21895;DHT22;11112;51.270;7.224;2022-09-03T07:26:19;19.80;59.70
21895;DHT22;11112;51.270;7.224;2022-09-03T07:28:49;19.90;59.80
21895;DHT22;11112;51.270;7.224;2022-09-03T07:31:19;19.90;59.80
21895;DHT22;11112;51.270;7.224;2022-09-03T07:33:52;19.90;59.90
21895;DHT22;11112;51.270;7.224;2022-09-03T07:36:23;19.90;59.70
21895;DHT22;11112;51.270;7.224;2022-09-03T07:38:53;20.00;59.70
21895;DHT22;11112;51.270;7.224;2022-09-03T07:41:21;20.00;59.90
21895;DHT22;11112;51.270;7.224;2022-09-03T07:43:49;20.00;60.20
21895;DHT22;11112;51.270;7.224;2022-09-03T07:46:18;20.10;60.10
21895;DHT22;11112;51.270;7.224;2022-09-03T07:48:48;20.20;59.90
21895;DHT22;11112;51.270;7.224;2022-09-03T07:51:16;20.30;59.60
21895;DHT22;11112;51.270;7.224;2022-09-03T07:53:46;20.30;59.60
21895;DHT22;11112;51.270;7.224;2022-09-03T07:56:14;20.40;59.60
21895;DHT22;11112;51.270;7.224;2022-09-03T07:58:41;20.40;59.40
21895;DHT22;11112;51.270;7.224;2022-09-03T08:01:10;20.40;59.10
21895;DHT22;11112;51.270;7.224;2022-09-03T08:03:41;20.50;59.10
21895;DHT22;11112;51.270;7.224;2022-09-03T08:06:10;20.50;59.10
21895;DHT22;11112;51.270;7.224;2022-09-03T08:08:38;20.60;59.00
21895;DHT22;11112;51.270;7.224;2022-09-03T08:11:08;20.60;58.90
21895;DHT22;11112;51.270;7.224;2022-09-03T08:13:37;20.60;58.80
21895;DHT22;11112;51.270;7.224;2022-09-03T08:16:06;20.70;58.90
21895;DHT22;11112;51.270;7.224;2022-09-03T08:18:34;20.70;58.90
21895;DHT22;11112;51.270;7.224;2022-09-03T08:21:05;20.80;58.90
21895;DHT22;11112;51.270;7.224;2022-09-03T08:23:36;20.90;58.90
21895;DHT22;11112;51.270;7.224;2022-09-03T08:26:03;20.90;58.70
21895;DHT22;11112;51.270;7.224;2022-09-03T08:28:33;21.00;58.70
21895;DHT22;11112;51.270;7.224;2022-09-03T08:31:04;21.00;58.60
21895;DHT22;11112;51.270;7.224;2022-09-03T08:33:32;21.00;58.70
21895;DHT22;11112;51.270;7.224;2022-09-03T08:36:04;21.10;58.40
21895;DHT22;11112;51.270;7.224;2022-09-03T08:38:34;21.10;58.60
21895;DHT22;11112;51.270;7.224;2022-09-03T08:41:04;21.20;58.50
21895;DHT22;11112;51.270;7.224;2022-09-03T08:43:42;21.20;58.20
21895;DHT22;11112;51.270;7.224;2022-09-03T08:46:20;21.20;58.10
21895;DHT22;11112;51.270;7.224;2022-09-03T08:48:50;21.30;58.10
21895;DHT22;11112;51.270;7.224;2022-09-03T08:51:19;21.30;57.90
21895;DHT22;11112;51.270;7.224;2022-09-03T08:53:53;21.30;58.10
21895;DHT22;11112;51.270;7.224;2022-09-03T08:56:25;21.40;58.10
21895;DHT22;11112;51.270;7.224;2022-09-03T08:58:56;21.50;57.80
21895;DHT22;11112;51.270;7.224;2022-09-03T09:01:33;21.50;57.50
21895;DHT22;11112;51.270;7.224;2022-09-03T09:04:13;21.50;57.80
21895;DHT22;11112;51.270;7.224;2022-09-03T09:06:53;21.60;57.80
21895;DHT22;11112;51.270;7.224;2022-09-03T09:09:29;21.60;57.50
21895;DHT22;11112;51.270;7.224;2022-09-03T09:12:08;21.60;57.40
21895;DHT22;11112;51.270;7.224;2022-09-03T09:14:45;21.60;57.40
21895;DHT22;11112;51.270;7.224;2022-09-03T09:17:36;21.70;57.60
21895;DHT22;11112;51.270;7.224;2022-09-03T09:20:25;21.70;57.20
21895;DHT22;11112;51.270;7.224;2022-09-03T09:23:02;21.70;57.60
21895;DHT22;11112;51.270;7.224;2022-09-03T09:25:31;21.80;57.30
21895;DHT22;11112;51.270;7.224;2022-09-03T09:28:12;21.80;56.90
21895;DHT22;11112;51.270;7.224;2022-09-03T09:30:45;21.80;57.10
21895;DHT22;11112;51.270;7.224;2022-09-03T09:33:13;21.90;57.10
21895;DHT22;11112;51.270;7.224;2022-09-03T09:35:40;21.90;57.20
21895;DHT22;11112;51.270;7.224;2022-09-03T09:38:09;21.90;57.80
21895;DHT22;11112;51.270;7.224;2022-09-03T09:40:39;22.00;57.70
21895;DHT22;11112;51.270;7.224;2022-09-03T09:43:10;22.00;57.30
21895;DHT22;11112;51.270;7.224;2022-09-03T09:45:43;22.00;57.20
21895;DHT22;11112;51.270;7.224;2022-09-03T09:48:21;22.00;57.10
21895;DHT22;11112;51.270;7.224;2022-09-03T09:51:03;21.90;57.40
21895;DHT22;11112;51.270;7.224;2022-09-03T09:53:31;21.90;57.10
21895;DHT22;11112;51.270;7.224;2022-09-03T09:55:59;21.90;57.20
21895;DHT22;11112;51.270;7.224;2022-09-03T09:58:28;21.90;57.70
21895;DHT22;11112;51.270;7.224;2022-09-03T10:01:01;21.80;57.50
21895;DHT22;11112;51.270;7.224;2022-09-03T10:03:40;21.80;57.70
21895;DHT22;11112;51.270;7.224;2022-09-03T10:06:15;21.80;58.00
21895;DHT22;11112;51.270;7.224;2022-09-03T10:09:08;21.80;58.00
21895;DHT22;11112;51.270;7.224;2022-09-03T10:11:38;21.80;58.40
21895;DHT22;11112;51.270;7.224;2022-09-03T10:14:14;21.90;57.90
21895;DHT22;11112;51.270;7.224;2022-09-03T10:16:49;21.90;58.00
21895;DHT22;11112;51.270;7.224;2022-09-03T10:19:26;22.00;59.30
21895;DHT22;11112;51.270;7.224;2022-09-03T10:22:03;22.00;58.40
21895;DHT22;11112;51.270;7.224;2022-09-03T10:24:39;22.10;58.80
21895;DHT22;11112;51.270;7.224;2022-09-03T10:27:15;22.10;58.80
21895;DHT22;11112;51.270;7.224;2022-09-03T10:29:43;22.10;59.50
21895;DHT22;11112;51.270;7.224;2022-09-03T10:32:21;22.10;58.50
21895;DHT22;11112;51.270;7.224;2022-09-03T10:35:02;22.10;59.70
21895;DHT22;11112;51.270;7.224;2022-09-03T10:37:37;22.10;59.20
21895;DHT22;11112;51.270;7.224;2022-09-03T10:40:18;22.10;58.10
21895;DHT22;11112;51.270;7.224;2022-09-03T10:43:03;22.10;58.20
21895;DHT22;11112;51.270;7.224;2022-09-03T10:45:47;22.10;58.70
21895;DHT22;11112;51.270;7.224;2022-09-03T10:48:36;22.10;58.50
21895;DHT22;11112;51.270;7.224;2022-09-03T10:51:12;22.00;58.70
21895;DHT22;11112;51.270;7.224;2022-09-03T10:53:54;22.00;58.80
21895;DHT22;11112;51.270;7.224;2022-09-03T10:56:37;22.00;58.30
21895;DHT22;11112;51.270;7.224;2022-09-03T10:59:23;22.00;58.50
21895;DHT22;11112;51.270;7.224;2022-09-03T11:05:01;22.00;58.80
21895;DHT22;11112;51.270;7.224;2022-09-03T11:07:35;22.00;59.40
21895;DHT22;11112;51.270;7.224;2022-09-03T11:10:11;22.00;60.20
21895;DHT22;11112;51.270;7.224;2022-09-03T11:12:43;21.90;59.50
21895;DHT22;11112;51.270;7.224;2022-09-03T11:15:17;21.90;59.40
21895;DHT22;11112;51.270;7.224;2022-09-03T11:17:53;21.90;59.60
21895;DHT22;11112;51.270;7.224;2022-09-03T11:20:25;21.90;60.20
21895;DHT22;11112;51.270;7.224;2022-09-03T11:22:56;21.90;60.70
21895;DHT22;11112;51.270;7.224;2022-09-03T11:25:29;21.90;61.40
21895;DHT22;11112;51.270;7.224;2022-09-03T11:28:06;21.90;61.40
21895;DHT22;11112;51.270;7.224;2022-09-03T11:30:51;21.90;61.00
21895;DHT22;11112;51.270;7.224;2022-09-03T11:33:28;21.90;60.80
21895;DHT22;11112;51.270;7.224;2022-09-03T11:36:05;21.90;61.30
21895;DHT22;11112;51.270;7.224;2022-09-03T11:38:33;21.90;61.70
21895;DHT22;11112;51.270;7.224;2022-09-03T11:41:11;21.90;61.70
21895;DHT22;11112;51.270;7.224;2022-09-03T11:43:40;21.90;61.50
21895;DHT22;11112;51.270;7.224;2022-09-03T11:46:13;21.90;61.30
21895;DHT22;11112;51.270;7.224;2022-09-03T11:48:54;21.90;61.30
21895;DHT22;11112;51.270;7.224;2022-09-03T11:51:33;21.90;61.40
21895;DHT22;11112;51.270;7.224;2022-09-03T11:54:03;22.00;61.70
21895;DHT22;11112;51.270;7.224;2022-09-03T11:56:33;21.90;61.90
21895;DHT22;11112;51.270;7.224;2022-09-03T11:59:05;21.90;61.90
21895;DHT22;11112;51.270;7.224;2022-09-03T12:01:47;22.00;62.20
21895;DHT22;11112;51.270;7.224;2022-09-03T12:04:21;22.00;62.50
21895;DHT22;11112;51.270;7.224;2022-09-03T12:07:05;22.00;63.10
21895;DHT22;11112;51.270;7.224;2022-09-03T12:12:57;22.10;63.30
21895;DHT22;11112;51.270;7.224;2022-09-03T12:15:52;22.10;63.80
21895;DHT22;11112;51.270;7.224;2022-09-03T12:18:28;22.10;64.10
21895;DHT22;11112;51.270;7.224;2022-09-03T12:21:02;22.20;64.70
21895;DHT22;11112;51.270;7.224;2022-09-03T12:23:33;22.20;65.20
21895;DHT22;11112;51.270;7.224;2022-09-03T12:26:04;22.20;65.60
21895;DHT22;11112;51.270;7.224;2022-09-03T12:28:36;22.30;65.50
21895;DHT22;11112;51.270;7.224;2022-09-03T12:31:09;22.20;65.60
21895;DHT22;11112;51.270;7.224;2022-09-03T12:33:48;22.20;65.40
21895;DHT22;11112;51.270;7.224;2022-09-03T12:36:17;22.30;65.90
21895;DHT22;11112;51.270;7.224;2022-09-03T12:38:47;22.30;66.00
21895;DHT22;11112;51.270;7.224;2022-09-03T12:41:23;22.30;65.90
21895;DHT22;11112;51.270;7.224;2022-09-03T12:43:54;22.40;65.90
21895;DHT22;11112;51.270;7.224;2022-09-03T12:46:23;22.40;65.90
21895;DHT22;11112;51.270;7.224;2022-09-03T12:48:53;22.40;65.70
21895;DHT22;11112;51.270;7.224;2022-09-03T12:51:21;22.40;65.50
21895;DHT22;11112;51.270;7.224;2022-09-03T12:53:50;22.40;65.80
21895;DHT22;11112;51.270;7.224;2022-09-03T12:56:21;22.40;66.20
21895;DHT22;11112;51.270;7.224;2022-09-03T12:58:52;22.40;66.10
21895;DHT22;11112;51.270;7.224;2022-09-03T13:01:26;22.40;66.20
21895;DHT22;11112;51.270;7.224;2022-09-03T13:04:01;22.40;66.30
21895;DHT22;11112;51.270;7.224;2022-09-03T13:06:33;22.40;66.60
21895;DHT22;11112;51.270;7.224;2022-09-03T13:09:10;22.40;67.80
21895;DHT22;11112;51.270;7.224;2022-09-03T13:11:39;22.40;66.90
21895;DHT22;11112;51.270;7.224;2022-09-03T13:14:10;22.40;66.80
21895;DHT22;11112;51.270;7.224;2022-09-03T13:20:03;22.50;66.90
21895;DHT22;11112;51.270;7.224;2022-09-03T13:22:49;22.50;66.60
21895;DHT22;11112;51.270;7.224;2022-09-03T13:25:29;22.50;66.80
21895;DHT22;11112;51.270;7.224;2022-09-03T13:28:06;22.50;66.50
21895;DHT22;11112;51.270;7.224;2022-09-03T13:30:47;22.50;66.20
21895;DHT22;11112;51.270;7.224;2022-09-03T13:33:22;22.50;66.00
21895;DHT22;11112;51.270;7.224;2022-09-03T13:35:53;22.60;67.10
21895;DHT22;11112;51.270;7.224;2022-09-03T13:38:31;22.60;66.00
21895;DHT22;11112;51.270;7.224;2022-09-03T13:41:08;22.60;65.80
21895;DHT22;11112;51.270;7.224;2022-09-03T13:43:47;22.60;65.60
21895;DHT22;11112;51.270;7.224;2022-09-03T13:46:23;22.60;65.40
21895;DHT22;11112;51.270;7.224;2022-09-03T13:48:58;22.60;65.10
21895;DHT22;11112;51.270;7.224;2022-09-03T13:51:50;22.50;64.90
21895;DHT22;11112;51.270;7.224;2022-09-03T13:54:23;22.50;65.10
21895;DHT22;11112;51.270;7.224;2022-09-03T13:56:56;22.60;65.10
21895;DHT22;11112;51.270;7.224;2022-09-03T13:59:34;22.60;65.20
21895;DHT22;11112;51.270;7.224;2022-09-03T14:02:15;22.60;65.20
21895;DHT22;11112;51.270;7.224;2022-09-03T14:05:04;22.60;65.00
21895;DHT22;11112;51.270;7.224;2022-09-03T14:07:50;22.70;65.10
21895;DHT22;11112;51.270;7.224;2022-09-03T14:10:29;22.60;64.90
21895;DHT22;11112;51.270;7.224;2022-09-03T14:13:21;22.70;67.00
21895;DHT22;11112;51.270;7.224;2022-09-03T14:16:05;22.70;64.70
21895;DHT22;11112;51.270;7.224;2022-09-03T14:18:42;22.70;64.50
21895;DHT22;11112;51.270;7.224;2022-09-03T14:21:18;22.80;65.20
21895;DHT22;11112;51.270;7.224;2022-09-03T14:23:54;22.80;64.20
21895;DHT22;11112;51.270;7.224;2022-09-03T14:26:29;22.80;64.60
21895;DHT22;11112;51.270;7.224;2022-09-03T14:29:01;22.90;65.30
21895;DHT22;11112;51.270;7.224;2022-09-03T14:31:47;22.90;64.20
21895;DHT22;11112;51.270;7.224;2022-09-03T14:34:31;22.90;64.10
21895;DHT22;11112;51.270;7.224;2022-09-03T14:37:06;23.00;64.10
21895;DHT22;11112;51.270;7.224;2022-09-03T14:39:46;22.90;64.60
21895;DHT22;11112;51.270;7.224;2022-09-03T14:42:43;22.90;66.30
21895;DHT22;11112;51.270;7.224;2022-09-03T14:45:42;22.90;66.00
21895;DHT22;11112;51.270;7.224;2022-09-03T14:48:34;22.90;66.10
21895;DHT22;11112;51.270;7.224;2022-09-03T14:51:19;22.90;67.10
21895;DHT22;11112;51.270;7.224;2022-09-03T14:57:08;22.90;67.30
21895;DHT22;11112;51.270;7.224;2022-09-03T15:00:01;22.90;67.10
21895;DHT22;11112;51.270;7.224;2022-09-03T15:02:53;22.90;67.10
21895;DHT22;11112;51.270;7.224;2022-09-03T15:05:48;22.90;68.20
21895;DHT22;11112;51.270;7.224;2022-09-03T15:08:27;22.90;67.50
21895;DHT22;11112;51.270;7.224;2022-09-03T15:11:16;22.90;67.40
21895;DHT22;11112;51.270;7.224;2022-09-03T15:13:46;22.90;67.50
21895;DHT22;11112;51.270;7.224;2022-09-03T15:16:30;22.80;67.40
21895;DHT22;11112;51.270;7.224;2022-09-03T15:19:15;22.90;67.70
21895;DHT22;11112;51.270;7.224;2022-09-03T15:22:08;22.90;67.90
21895;DHT22;11112;51.270;7.224;2022-09-03T15:24:48;22.90;68.40
21895;DHT22;11112;51.270;7.224;2022-09-03T15:27:36;22.90;68.30
21895;DHT22;11112;51.270;7.224;2022-09-03T15:30:11;22.90;68.60
21895;DHT22;11112;51.270;7.224;2022-09-03T15:32:47;22.90;68.80
21895;DHT22;11112;51.270;7.224;2022-09-03T15:35:33;22.90;69.00
21895;DHT22;11112;51.270;7.224;2022-09-03T15:38:09;22.90;69.40
21895;DHT22;11112;51.270;7.224;2022-09-03T15:40:47;22.80;69.60
21895;DHT22;11112;51.270;7.224;2022-09-03T15:43:18;22.80;69.90
21895;DHT22;11112;51.270;7.224;2022-09-03T15:45:51;22.80;70.30
21895;DHT22;11112;51.270;7.224;2022-09-03T15:48:29;22.80;70.30
21895;DHT22;11112;51.270;7.224;2022-09-03T15:51:11;22.80;70.60
21895;DHT22;11112;51.270;7.224;2022-09-03T15:53:48;22.80;70.70
21895;DHT22;11112;51.270;7.224;2022-09-03T15:56:22;22.80;72.10
21895;DHT22;11112;51.270;7.224;2022-09-03T15:58:59;22.80;76.50
21895;DHT22;11112;51.270;7.224;2022-09-03T16:01:35;22.70;78.20
21895;DHT22;11112;51.270;7.224;2022-09-03T16:04:17;22.60;80.20
21895;DHT22;11112;51.270;7.224;2022-09-03T16:06:57;22.60;81.10
21895;DHT22;11112;51.270;7.224;2022-09-03T16:09:37;22.50;82.80
21895;DHT22;11112;51.270;7.224;2022-09-03T16:12:18;22.40;84.30
21895;DHT22;11112;51.270;7.224;2022-09-03T16:14:55;22.40;85.70
21895;DHT22;11112;51.270;7.224;2022-09-03T16:17:27;22.20;87.20
21895;DHT22;11112;51.270;7.224;2022-09-03T16:20:02;22.10;90.70
21895;DHT22;11112;51.270;7.224;2022-09-03T16:22:40;22.00;89.10
21895;DHT22;11112;51.270;7.224;2022-09-03T16:25:13;21.90;90.10
21895;DHT22;11112;51.270;7.224;2022-09-03T16:27:52;21.90;91.50
21895;DHT22;11112;51.270;7.224;2022-09-03T16:30:34;21.90;91.80